createdAt,value
2018-04-15T00:00:48.705Z,38.27
2018-04-15T00:03:16.160Z,37.07
2018-04-15T00:05:43.615Z,43.87
2018-04-15T00:08:11.077Z,43.30
2018-04-15T00:10:38.536Z,38.03
2018-04-15T00:13:06.001Z,40.93
2018-04-15T00:15:33.450Z,43.87
2018-04-15T00:18:01.681Z,38.37
2018-04-15T00:20:29.154Z,38.93
2018-04-15T00:22:56.620Z,36.77
2018-04-15T00:25:24.065Z,39.73
2018-04-15T00:27:51.510Z,43.17
2018-04-15T00:30:18.963Z,43.80
2018-04-15T00:32:46.412Z,41.83
2018-04-15T00:35:13.852Z,40.97
2018-04-15T00:37:41.320Z,43.50
2018-04-15T00:40:08.787Z,45.27
2018-04-15T00:42:36.238Z,44.60
2018-04-15T00:45:03.697Z,44.20
2018-04-15T00:47:31.154Z,52.13
2018-04-15T00:49:58.604Z,44.33
2018-04-15T00:52:26.833Z,41.83
2018-04-15T00:54:55.052Z,39.30
2018-04-15T00:57:22.514Z,40.77
2018-04-15T00:59:49.961Z,47.10
2018-04-15T01:02:17.416Z,46.90
2018-04-15T01:04:44.888Z,42.70
2018-04-15T01:07:12.342Z,38.17
2018-04-15T01:09:39.785Z,44.07
2018-04-15T01:12:07.992Z,40.63
2018-04-15T01:14:35.452Z,50.17
2018-04-15T01:17:02.897Z,43.10
2018-04-15T01:19:30.349Z,37.90
2018-04-15T01:21:58.552Z,44.23
2018-04-15T01:24:26.007Z,40.23
2018-04-15T01:26:53.444Z,40.37
2018-04-15T01:29:21.676Z,40.77
2018-04-15T01:31:49.139Z,41.37
2018-04-15T01:34:16.683Z,41.97
2018-04-15T01:36:44.150Z,42.70
2018-04-15T01:39:11.632Z,38.50
2018-04-15T01:41:39.082Z,38.93
2018-04-15T01:44:06.542Z,45.23
2018-04-15T01:46:34.053Z,43.67
2018-04-15T01:49:01.502Z,44.70
2018-04-15T01:51:28.957Z,46.97
2018-04-15T01:53:56.419Z,39.83
2018-04-15T01:56:23.863Z,43.97
2018-04-15T01:58:51.326Z,47.87
2018-04-15T02:01:18.759Z,43.63
2018-04-15T02:03:46.206Z,38.63
2018-04-15T02:06:14.428Z,42.03
2018-04-15T02:08:41.896Z,49.03
2018-04-15T02:11:09.340Z,51.00
2018-04-15T02:13:36.791Z,39.33
2018-04-15T02:16:04.240Z,42.40
2018-04-15T02:18:32.475Z,50.40
2018-04-15T02:20:59.928Z,43.30
2018-04-15T02:23:27.398Z,43.83
2018-04-15T02:25:54.847Z,40.97
2018-04-15T02:28:22.348Z,42.50
2018-04-15T02:30:49.819Z,38.57
2018-04-15T02:33:18.050Z,43.13
2018-04-15T02:35:45.514Z,51.37
2018-04-15T02:38:12.952Z,42.73
2018-04-15T02:40:40.411Z,47.93
2018-04-15T02:43:08.634Z,39.40
2018-04-15T02:45:36.082Z,52.27
2018-04-15T02:48:03.528Z,39.23
2018-04-15T02:50:30.978Z,41.90
2018-04-15T02:52:59.188Z,39.53
2018-04-15T02:55:26.637Z,39.60
2018-04-15T02:57:54.113Z,35.50
2018-04-15T03:00:21.541Z,44.57
2018-04-15T03:02:49.781Z,45.07
2018-04-15T03:05:17.243Z,42.97
2018-04-15T03:07:44.697Z,49.50
2018-04-15T03:10:12.300Z,53.20
2018-04-15T03:12:39.748Z,38.73
2018-04-15T03:15:07.992Z,45.70
2018-04-15T03:17:35.449Z,40.57
2018-04-15T03:20:02.911Z,48.90
2018-04-15T03:22:30.365Z,50.17
2018-04-15T03:24:57.814Z,46.00
2018-04-15T03:27:25.258Z,49.00
2018-04-15T03:29:53.492Z,46.63
2018-04-15T03:32:20.936Z,46.87
2018-04-15T03:34:48.407Z,51.83
2018-04-15T03:37:15.856Z,48.60
2018-04-15T03:39:43.308Z,48.37
2018-04-15T03:42:10.782Z,51.30
2018-04-15T03:44:38.237Z,46.03
2018-04-15T03:47:05.708Z,48.57
2018-04-15T03:49:33.161Z,48.83
2018-04-15T03:52:01.372Z,47.83
2018-04-15T03:54:28.881Z,49.10
2018-04-15T03:56:57.109Z,46.83
2018-04-15T03:59:24.566Z,48.83
2018-04-15T04:01:51.995Z,49.90
2018-04-15T04:04:20.229Z,43.57
2018-04-15T04:06:47.664Z,47.00
2018-04-15T04:09:15.133Z,50.27
2018-04-15T04:11:42.569Z,56.37
2018-04-15T04:14:10.026Z,52.57
2018-04-15T04:16:38.249Z,53.57
2018-04-15T04:19:17.540Z,39.37
2018-04-15T04:21:57.762Z,43.70
2018-04-15T04:24:37.113Z,43.47
2018-04-15T04:27:05.630Z,52.93
2018-04-15T04:29:33.089Z,51.53
2018-04-15T04:32:00.543Z,43.93
2018-04-15T04:34:28.766Z,52.63
2018-04-15T04:36:56.999Z,50.40
2018-04-15T04:39:25.217Z,57.93
2018-04-15T04:41:52.681Z,52.73
2018-04-15T04:44:20.128Z,39.33
2018-04-15T04:46:47.568Z,49.83
2018-04-15T04:49:15.780Z,46.13
2018-04-15T04:51:43.245Z,49.43
2018-04-15T04:54:10.721Z,46.90
2018-04-15T04:56:38.159Z,46.47
2018-04-15T04:59:05.607Z,52.83
2018-04-15T05:01:33.060Z,51.70
2018-04-15T05:06:34.441Z,49.20
2018-04-15T05:09:02.661Z,55.10
2018-04-15T05:11:30.123Z,53.27
2018-04-15T05:13:57.581Z,54.13
2018-04-15T05:16:25.050Z,49.53
2018-04-15T05:18:52.518Z,49.73
2018-04-15T05:21:19.968Z,53.80
2018-04-15T05:23:47.409Z,49.70
2018-04-15T05:26:14.883Z,53.20
2018-04-15T05:28:42.346Z,55.80
2018-04-15T05:31:10.334Z,43.43
2018-04-15T05:33:37.802Z,55.77
2018-04-15T05:36:05.258Z,60.83
2018-04-15T05:38:32.722Z,55.00
2018-04-15T05:41:00.165Z,51.43
2018-04-15T05:43:27.651Z,51.53
2018-04-15T05:45:55.107Z,52.50
2018-04-15T05:48:22.543Z,47.20
2018-04-15T05:50:49.985Z,51.27
2018-04-15T05:53:18.203Z,52.10
2018-04-15T05:55:45.652Z,56.57
2018-04-15T05:58:13.111Z,53.80
2018-04-15T06:00:40.589Z,52.57
2018-04-15T06:03:08.058Z,46.90
2018-04-15T06:05:35.513Z,47.53
2018-04-15T06:08:02.979Z,58.33
2018-04-15T06:10:30.448Z,63.87
2018-04-15T06:12:57.903Z,69.37
2018-04-15T06:15:25.344Z,46.97
2018-04-15T06:17:52.810Z,47.83
2018-04-15T06:20:20.292Z,49.47
2018-04-15T06:22:47.732Z,52.00
2018-04-15T06:25:15.235Z,58.10
2018-04-15T06:27:42.701Z,51.23
2018-04-15T06:30:10.166Z,44.00
2018-04-15T06:32:37.683Z,51.83
2018-04-15T06:35:05.136Z,68.87
2018-04-15T06:37:33.367Z,70.70
2018-04-15T06:40:00.831Z,56.77
2018-04-15T06:42:28.294Z,57.20
2018-04-15T06:44:55.775Z,66.03
2018-04-15T06:47:23.310Z,77.87
2018-04-15T06:49:50.773Z,82.43
2018-04-15T06:52:18.211Z,66.20
2018-04-15T06:54:45.991Z,64.20
2018-04-15T06:57:13.431Z,67.67
2018-04-15T06:59:41.641Z,54.47
2018-04-15T07:02:09.092Z,63.20
2018-04-15T07:04:36.559Z,66.83
2018-04-15T07:07:04.034Z,48.97
2018-04-15T07:09:31.537Z,50.03
2018-04-15T07:11:58.958Z,59.77
2018-04-15T07:14:26.425Z,70.37
2018-04-15T07:16:53.917Z,54.57
2018-04-15T07:19:21.389Z,67.27
2018-04-15T07:21:48.944Z,66.03
2018-04-15T07:24:16.381Z,67.50
2018-04-15T07:26:43.833Z,58.17
2018-04-15T07:29:12.512Z,79.17
2018-04-15T07:31:40.528Z,77.13
2018-04-15T07:34:07.980Z,59.40
2018-04-15T07:36:35.489Z,72.23
2018-04-15T07:39:02.900Z,69.13
2018-04-15T07:41:31.121Z,57.17
2018-04-15T07:43:58.580Z,54.33
2018-04-15T07:46:26.798Z,56.63
2018-04-15T07:48:54.254Z,66.33
2018-04-15T07:51:21.756Z,60.00
2018-04-15T07:53:49.255Z,61.17
2018-04-15T07:56:17.534Z,70.67
2018-04-15T07:58:44.932Z,69.67
2018-04-15T08:01:12.392Z,70.53
2018-04-15T08:03:39.863Z,73.97
2018-04-15T08:06:07.316Z,60.90
2018-04-15T08:08:34.787Z,73.27
2018-04-15T08:11:02.255Z,73.47
2018-04-15T08:13:29.730Z,63.30
2018-04-15T08:15:57.193Z,75.87
2018-04-15T08:18:24.641Z,75.87
2018-04-15T08:20:52.196Z,75.07
2018-04-15T08:23:19.670Z,81.47
2018-04-15T08:25:47.160Z,69.80
2018-04-15T08:28:14.631Z,68.93
2018-04-15T08:30:42.103Z,77.87
2018-04-15T08:33:09.547Z,70.87
2018-04-15T08:35:37.764Z,80.33
2018-04-15T08:38:06.074Z,68.97
2018-04-15T08:40:34.996Z,104.00
2018-04-15T08:43:02.504Z,103.23
2018-04-15T08:45:29.946Z,103.37
2018-04-15T08:47:57.403Z,96.57
2018-04-15T08:50:24.875Z,90.80
2018-04-15T08:52:52.337Z,99.80
2018-04-15T08:55:19.798Z,105.47
2018-04-15T08:57:47.269Z,118.27
2018-04-15T09:00:14.743Z,101.40
2018-04-15T09:02:42.973Z,95.97
2018-04-15T09:05:10.418Z,111.83
2018-04-15T09:07:37.894Z,85.30
2018-04-15T09:10:05.348Z,85.17
2018-04-15T09:12:32.782Z,85.07
2018-04-15T09:15:00.996Z,80.97
2018-04-15T09:17:28.438Z,71.30
2018-04-15T09:19:55.916Z,80.33
2018-04-15T09:22:23.524Z,82.80
2018-04-15T09:24:50.977Z,96.30
2018-04-15T09:27:18.438Z,71.37
2018-04-15T09:29:45.893Z,71.97
2018-04-15T09:32:13.368Z,86.77
2018-04-15T09:34:40.988Z,64.53
2018-04-15T09:37:08.447Z,82.53
2018-04-15T09:39:35.901Z,98.07
2018-04-15T09:42:03.357Z,93.57
2018-04-15T09:44:31.588Z,91.20
2018-04-15T09:46:59.036Z,103.43
2018-04-15T09:49:26.504Z,113.00
2018-04-15T09:51:54.764Z,96.67
2018-04-15T09:54:22.219Z,98.87
2018-04-15T09:56:49.655Z,85.43
2018-04-15T09:59:18.920Z,82.97
2018-04-15T10:01:46.374Z,71.17
2018-04-15T10:04:13.826Z,61.70
2018-04-15T10:06:41.285Z,60.20
2018-04-15T10:09:08.742Z,51.57
2018-04-15T10:11:36.184Z,38.23
2018-04-15T10:14:04.397Z,37.17
2018-04-15T10:16:31.856Z,33.97
2018-04-15T10:18:59.316Z,32.70
2018-04-15T10:21:26.770Z,32.17
2018-04-15T10:23:54.233Z,31.73
2018-04-15T10:26:21.677Z,31.30
2018-04-15T10:28:49.895Z,30.40
2018-04-15T10:31:17.344Z,26.57
2018-04-15T10:33:44.849Z,26.10
2018-04-15T10:36:12.288Z,28.03
2018-04-15T10:38:39.735Z,24.37
2018-04-15T10:41:07.190Z,28.57
2018-04-15T10:43:34.654Z,27.27
2018-04-15T10:46:02.133Z,26.37
2018-04-15T10:48:29.549Z,25.33
2018-04-15T10:50:57.763Z,27.30
2018-04-15T10:53:25.213Z,31.10
2018-04-15T10:55:52.661Z,28.73
2018-04-15T10:58:20.873Z,29.13
2018-04-15T11:00:48.328Z,29.23
2018-04-15T11:03:15.778Z,32.23
2018-04-15T11:05:43.233Z,30.57
2018-04-15T11:08:10.694Z,32.47
2018-04-15T11:10:38.910Z,31.73
2018-04-15T11:13:06.364Z,27.67
2018-04-15T11:15:33.932Z,29.97
2018-04-15T11:18:01.401Z,29.33
2018-04-15T11:20:28.856Z,29.30
2018-04-15T11:22:56.950Z,32.50
2018-04-15T11:25:24.406Z,32.87
2018-04-15T11:27:52.641Z,29.57
2018-04-15T11:30:20.871Z,29.83
2018-04-15T11:32:48.350Z,26.07
2018-04-15T11:35:15.789Z,24.37
2018-04-15T11:37:43.247Z,21.17
2018-04-15T11:40:10.746Z,20.33
2018-04-15T11:42:38.185Z,21.20
2018-04-15T11:45:05.632Z,17.23
2018-04-15T11:47:33.100Z,17.67
2018-04-15T11:50:00.529Z,15.23
2018-04-15T11:52:28.750Z,15.43
2018-04-15T11:54:56.263Z,14.70
2018-04-15T11:57:23.711Z,14.67
2018-04-15T11:59:51.161Z,14.97
2018-04-15T12:02:18.640Z,15.53
2018-04-15T12:04:46.093Z,14.63
2018-04-15T12:07:13.545Z,14.87
2018-04-15T12:09:41.009Z,13.40
2018-04-15T12:12:09.773Z,13.40
2018-04-15T12:14:37.260Z,12.13
2018-04-15T12:17:04.722Z,12.17
2018-04-15T12:19:32.161Z,12.87
2018-04-15T12:21:59.618Z,11.93
2018-04-15T12:24:27.066Z,15.80
2018-04-15T12:26:54.538Z,34.77
2018-04-15T12:29:21.986Z,26.90
2018-04-15T12:31:50.221Z,21.10
2018-04-15T12:34:19.177Z,31.10
2018-04-15T12:36:46.639Z,20.00
2018-04-15T12:39:14.103Z,28.13
2018-04-15T12:41:41.574Z,37.10
2018-04-15T12:44:09.037Z,27.57
2018-04-15T12:46:36.522Z,26.23
2018-04-15T12:49:04.757Z,27.50
2018-04-15T12:51:32.966Z,18.07
2018-04-15T12:54:00.454Z,32.23
2018-04-15T12:56:27.909Z,20.37
2018-04-15T12:58:55.363Z,32.47
2018-04-15T13:01:22.825Z,34.33
2018-04-15T13:03:50.283Z,36.30
2018-04-15T13:06:17.767Z,30.93
2018-04-15T13:08:45.235Z,35.60
2018-04-15T13:11:12.699Z,25.07
2018-04-15T13:13:40.166Z,38.67
2018-04-15T13:16:07.630Z,36.97
2018-04-15T13:18:35.078Z,33.63
2018-04-15T13:21:02.534Z,27.33
2018-04-15T13:23:30.042Z,24.00
2018-04-15T13:25:58.282Z,25.60
2018-04-15T13:28:25.766Z,26.53
2018-04-15T13:30:53.197Z,26.77
2018-04-15T13:33:20.668Z,23.83
2018-04-15T13:35:48.110Z,28.10
2018-04-15T13:38:15.588Z,23.70
2018-04-15T13:40:45.514Z,21.33
2018-04-15T13:43:12.989Z,23.37
2018-04-15T13:45:41.277Z,24.57
2018-04-15T13:48:08.754Z,22.20
2018-04-15T13:50:36.973Z,20.27
2018-04-15T13:53:06.374Z,19.07
2018-04-15T13:55:33.814Z,19.43
2018-04-15T13:58:02.994Z,20.77
2018-04-15T14:00:30.492Z,23.00
2018-04-15T14:02:58.701Z,20.80
2018-04-15T14:05:26.174Z,22.43
2018-04-15T14:07:53.729Z,23.33
2018-04-15T14:10:21.198Z,21.90
2018-04-15T14:12:48.661Z,23.23
2018-04-15T14:15:16.121Z,22.73
2018-04-15T14:17:43.572Z,20.50
2018-04-15T14:20:11.026Z,18.63
2018-04-15T14:22:38.531Z,20.30
2018-04-15T14:25:05.990Z,19.87
2018-04-15T14:27:33.454Z,36.20
2018-04-15T14:30:00.935Z,32.50
2018-04-15T14:32:28.402Z,76.73
2018-04-15T14:34:56.624Z,32.03
2018-04-15T14:37:24.093Z,32.40
2018-04-15T14:39:51.550Z,31.63
2018-04-15T14:42:19.047Z,26.37
2018-04-15T14:44:46.497Z,23.43
2018-04-15T14:47:13.963Z,24.30
2018-04-15T14:49:41.472Z,21.93
2018-04-15T14:52:09.706Z,24.23
2018-04-15T14:54:37.166Z,20.33
2018-04-15T14:57:04.643Z,24.90
2018-04-15T14:59:32.117Z,23.73
2018-04-15T15:01:59.561Z,25.80
2018-04-15T15:04:27.046Z,23.20
2018-04-15T15:06:54.511Z,24.57
2018-04-15T15:09:21.969Z,21.70
2018-04-15T15:11:49.445Z,21.83
2018-04-15T15:14:16.930Z,19.67
2018-04-15T15:16:44.367Z,18.50
2018-04-15T15:19:11.822Z,18.20
2018-04-15T15:21:39.304Z,18.47
2018-04-15T15:24:07.582Z,16.87
2018-04-15T15:26:35.808Z,19.03
2018-04-15T15:29:03.294Z,18.93
2018-04-15T15:31:30.757Z,18.43
2018-04-15T15:33:58.217Z,24.70
2018-04-15T15:36:25.657Z,21.07
2018-04-15T15:38:53.132Z,22.10
2018-04-15T15:41:20.590Z,19.33
2018-04-15T15:43:48.040Z,18.37
2018-04-15T15:46:15.526Z,20.67
2018-04-15T15:48:42.990Z,46.60
2018-04-15T15:51:11.205Z,37.60
2018-04-15T15:53:39.454Z,24.67
2018-04-15T15:56:06.902Z,29.47
2018-04-15T15:58:34.365Z,23.87
2018-04-15T16:01:01.833Z,23.37
2018-04-15T16:03:29.319Z,23.23
2018-04-15T16:05:56.859Z,22.40
2018-04-15T16:08:24.308Z,24.23
2018-04-15T16:10:52.553Z,23.93
2018-04-15T16:13:20.757Z,24.10
2018-04-15T16:15:48.239Z,26.13
2018-04-15T16:18:15.705Z,30.10
2018-04-15T16:20:43.174Z,34.17
2018-04-15T16:23:10.696Z,26.50
2018-04-15T16:25:38.179Z,28.57
2018-04-15T16:28:05.645Z,37.70
2018-04-15T16:30:33.123Z,25.63
2018-04-15T16:33:00.602Z,24.90
2018-04-15T16:35:28.072Z,27.80
2018-04-15T16:37:55.544Z,24.73
2018-04-15T16:40:23.004Z,22.40
2018-04-15T16:42:50.481Z,23.87
2018-04-15T16:45:18.703Z,24.70
2018-04-15T16:47:46.305Z,23.67
2018-04-15T16:50:13.706Z,22.60
2018-04-15T16:52:41.164Z,20.57
2018-04-15T16:55:09.391Z,20.63
2018-04-15T16:57:36.855Z,23.63
2018-04-15T17:00:04.449Z,21.80
2018-04-15T17:02:31.866Z,22.37
2018-04-15T17:04:59.353Z,20.13
2018-04-15T17:07:27.614Z,20.70
2018-04-15T17:09:55.083Z,19.27
2018-04-15T17:12:22.568Z,20.20
2018-04-15T17:14:50.733Z,20.03
2018-04-15T17:17:18.205Z,19.23
2018-04-15T17:19:45.649Z,18.83
2018-04-15T17:22:13.140Z,19.20
2018-04-15T17:24:40.558Z,21.17
2018-04-15T17:27:08.027Z,18.40
2018-04-15T17:29:35.490Z,18.23
2018-04-15T17:32:02.980Z,18.57
2018-04-15T17:34:30.432Z,17.27
2018-04-15T17:36:57.901Z,18.53
2018-04-15T17:39:26.119Z,19.43
2018-04-15T17:41:54.345Z,18.97
2018-04-15T17:44:21.816Z,20.50
2018-04-15T17:46:49.317Z,19.30
2018-04-15T17:49:16.832Z,19.00
2018-04-15T17:51:44.313Z,18.53
2018-04-15T17:54:11.765Z,17.20
2018-04-15T17:56:39.642Z,16.90
2018-04-15T17:59:07.110Z,17.53
2018-04-15T18:01:34.582Z,18.83
2018-04-15T18:04:02.048Z,17.13
2018-04-15T18:06:29.494Z,17.63
2018-04-15T18:08:57.731Z,17.40
2018-04-15T18:11:25.924Z,16.37
2018-04-15T18:13:53.445Z,17.07
2018-04-15T18:16:20.876Z,16.50
2018-04-15T18:18:48.503Z,17.17
2018-04-15T18:21:15.967Z,17.43
2018-04-15T18:23:43.467Z,16.57
2018-04-15T18:26:10.964Z,17.03
2018-04-15T18:28:39.201Z,15.87
2018-04-15T18:31:06.670Z,15.17
2018-04-15T18:33:34.142Z,16.27
2018-04-15T18:36:01.611Z,15.37
2018-04-15T18:38:29.063Z,14.37
2018-04-15T18:40:56.521Z,14.63
2018-04-15T18:43:23.967Z,16.07
2018-04-15T18:45:51.431Z,15.50
2018-04-15T18:48:18.978Z,14.37
2018-04-15T18:50:46.432Z,15.37
2018-04-15T18:53:14.665Z,15.70
2018-04-15T18:55:42.139Z,14.97
2018-04-15T18:58:09.600Z,15.13
2018-04-15T19:00:37.130Z,15.53
2018-04-15T19:03:04.590Z,15.07
2018-04-15T19:05:32.062Z,14.87
2018-04-15T19:07:59.513Z,15.83
2018-04-15T19:10:27.730Z,15.37
2018-04-15T19:12:55.184Z,18.07
2018-04-15T19:15:22.677Z,15.90
2018-04-15T19:17:50.133Z,17.47
2018-04-15T19:20:17.586Z,15.80
2018-04-15T19:22:45.056Z,16.50
2018-04-15T19:25:12.567Z,17.33
2018-04-15T19:27:40.024Z,15.60
2018-04-15T19:30:07.490Z,16.43
2018-04-15T19:32:35.010Z,16.60
2018-04-15T19:35:02.502Z,15.53
2018-04-15T19:37:30.732Z,17.20
2018-04-15T19:39:58.204Z,15.63
2018-04-15T19:42:25.675Z,14.60
2018-04-15T19:44:53.150Z,15.73
2018-04-15T19:47:20.613Z,15.27
2018-04-15T19:49:49.095Z,16.90
2018-04-15T19:52:17.124Z,15.50
2018-04-15T19:54:44.606Z,17.37
2018-04-15T19:57:12.073Z,16.27
2018-04-15T19:59:40.292Z,15.83
2018-04-15T20:02:08.591Z,15.67
2018-04-15T20:04:36.091Z,15.10
2018-04-15T20:07:03.551Z,15.90
2018-04-15T20:09:30.993Z,16.00
2018-04-15T20:11:58.500Z,16.67
2018-04-15T20:14:25.925Z,16.67
2018-04-15T20:16:53.388Z,15.63
2018-04-15T20:19:20.887Z,17.03
2018-04-15T20:21:48.358Z,17.83
2018-04-15T20:24:15.831Z,16.53
2018-04-15T20:26:43.289Z,16.17
2018-04-15T20:29:10.778Z,17.17
2018-04-15T20:31:39.409Z,15.57
2018-04-15T20:34:06.871Z,16.50
2018-04-15T20:36:34.930Z,19.90
2018-04-15T20:39:02.397Z,16.37
2018-04-15T20:41:29.855Z,17.17
2018-04-15T20:43:57.298Z,15.73
2018-04-15T20:46:24.770Z,16.50
2018-04-15T20:48:52.250Z,16.50
2018-04-15T20:51:19.772Z,16.57
2018-04-15T20:53:47.186Z,15.73
2018-04-15T20:56:14.652Z,15.53
2018-04-15T20:58:42.891Z,16.03
2018-04-15T21:01:11.103Z,15.27
2018-04-15T21:03:38.574Z,14.43
2018-04-15T21:06:06.018Z,16.00
2018-04-15T21:08:33.519Z,16.00
2018-04-15T21:11:00.963Z,15.73
2018-04-15T21:13:28.442Z,15.53
2018-04-15T21:15:55.897Z,14.53
2018-04-15T21:18:23.349Z,16.23
2018-04-15T21:20:51.639Z,15.73
2018-04-15T21:23:19.339Z,14.50
2018-04-15T21:25:46.839Z,14.70
2018-04-15T21:28:14.303Z,14.03
2018-04-15T21:30:41.790Z,16.50
2018-04-15T21:33:09.242Z,15.50
2018-04-15T21:35:36.715Z,13.73
2018-04-15T21:38:04.166Z,12.87
2018-04-15T21:40:31.677Z,12.77
2018-04-15T21:42:59.152Z,13.77
2018-04-15T21:45:27.381Z,12.70
2018-04-15T21:47:54.834Z,12.70
2018-04-15T21:50:22.318Z,12.37
2018-04-15T21:52:49.805Z,10.90
2018-04-15T21:55:18.068Z,10.50
2018-04-15T21:57:45.532Z,11.30
2018-04-15T22:00:12.997Z,11.77
2018-04-15T22:02:40.454Z,11.03
2018-04-15T22:05:07.956Z,11.57
2018-04-15T22:07:35.411Z,10.27
2018-04-15T22:10:02.864Z,9.17
2018-04-15T22:12:30.328Z,9.17
2018-04-15T22:14:58.805Z,8.83
2018-04-15T22:17:26.807Z,10.97
2018-04-15T22:19:55.037Z,9.37
2018-04-15T22:22:22.493Z,9.57
2018-04-15T22:24:49.937Z,8.83
2018-04-15T22:27:17.394Z,8.93
2018-04-15T22:29:44.832Z,7.23
2018-04-15T22:32:13.101Z,7.60
2018-04-15T22:34:40.569Z,7.10
2018-04-15T22:37:08.002Z,6.47
2018-04-15T22:39:35.472Z,4.90
2018-04-15T22:42:02.936Z,5.13
2018-04-15T22:44:30.421Z,5.17
2018-04-15T22:46:58.662Z,4.43
2018-04-15T22:49:27.082Z,3.97
2018-04-15T22:51:54.537Z,3.10
2018-04-15T22:54:21.989Z,3.07
2018-04-15T22:56:49.463Z,3.50
2018-04-15T22:59:16.908Z,2.87
2018-04-15T23:01:44.392Z,3.00
2018-04-15T23:04:11.852Z,3.70
2018-04-15T23:06:39.318Z,3.20
2018-04-15T23:09:06.756Z,3.40
2018-04-15T23:11:34.973Z,3.03
2018-04-15T23:14:03.197Z,3.40
2018-04-15T23:16:30.651Z,3.10
2018-04-15T23:18:58.120Z,4.87
2018-04-15T23:21:25.605Z,2.90
2018-04-15T23:23:53.051Z,2.63
2018-04-15T23:26:20.524Z,2.87
2018-04-15T23:28:47.981Z,2.37
2018-04-15T23:31:15.426Z,2.13
2018-04-15T23:33:42.901Z,2.30
2018-04-15T23:36:10.351Z,1.90
2018-04-15T23:38:37.784Z,2.50
2018-04-15T23:41:06.000Z,2.00
2018-04-15T23:43:33.476Z,1.97
2018-04-15T23:46:00.953Z,1.87
2018-04-15T23:48:28.385Z,1.50
2018-04-15T23:50:55.863Z,2.17
2018-04-15T23:53:23.376Z,1.97
2018-04-15T23:55:50.804Z,2.87
2018-04-15T23:58:18.538Z,2.03
